Time;durP1;ratioP1;P1;durP2;ratioP2;P2;SDS_P1;SDS_P2;PMS_P1;PMS_P2;Temp;Humidity;BMP_temperature;BMP_pressure;BME280_temperature;BME280_humidity;BME280_pressure;Samples;Min_cycle;Max_cycle;Signal;HPM_P1;HPM_P2
2023/09/06 00:01:42;;;;;;;5.35;3.10;;;;;;;20.03;100.00;101832.00;4999579;28;20473;-86
2023/09/06 00:04:07;;;;;;;3.92;3.20;;;;;;;20.00;100.00;101840.56;4987046;28;20068;-86
2023/09/06 00:06:32;;;;;;;5.07;3.10;;;;;;;20.02;100.00;101853.13;4999031;28;20099;-86
2023/09/06 00:08:58;;;;;;;6.95;3.38;;;;;;;19.95;100.00;101835.34;4982483;28;20108;-86
2023/09/06 00:11:25;;;;;;;3.78;3.03;;;;;;;19.94;100.00;101845.09;4987847;28;20085;-86
2023/09/06 00:13:50;;;;;;;5.60;3.38;;;;;;;19.96;100.00;101849.09;4988586;28;20439;-86
2023/09/06 00:16:16;;;;;;;5.88;3.92;;;;;;;19.98;100.00;101846.66;5015430;28;20054;-86
2023/09/06 00:18:42;;;;;;;3.88;3.22;;;;;;;19.83;100.00;101816.78;5024123;28;20162;-86
2023/09/06 00:21:08;;;;;;;4.47;3.53;;;;;;;19.90;100.00;101839.41;5007877;28;20508;-86
2023/09/06 00:23:33;;;;;;;5.63;4.20;;;;;;;19.91;100.00;101835.38;5021115;28;20512;-85
2023/09/06 00:25:59;;;;;;;5.07;3.60;;;;;;;19.90;100.00;101830.91;5023221;28;20063;-86
2023/09/06 00:28:24;;;;;;;6.45;3.75;;;;;;;19.82;100.00;101837.91;5003088;28;20025;-86
2023/09/06 00:30:50;;;;;;;5.65;3.80;;;;;;;19.79;100.00;101830.19;5019704;28;20120;-86
2023/09/06 00:33:16;;;;;;;4.47;3.67;;;;;;;19.64;100.00;101816.06;5017285;28;20033;-86
2023/09/06 00:35:42;;;;;;;6.07;4.13;;;;;;;19.77;100.00;101835.50;5021928;28;20454;-86
2023/09/06 00:38:08;;;;;;;4.97;3.60;;;;;;;19.61;100.00;101811.25;5000765;28;20036;-85
2023/09/06 00:40:37;;;;;;;5.47;3.60;;;;;;;19.68;100.00;101828.22;5006218;28;20056;-86
2023/09/06 00:43:07;;;;;;;6.65;3.40;;;;;;;19.69;100.00;101818.50;5004255;28;20479;-86
2023/09/06 00:45:48;;;;;;;5.32;4.05;;;;;;;19.68;100.00;101816.84;5006592;28;20036;-86
2023/09/06 00:48:25;;;;;;;5.18;4.07;;;;;;;19.66;100.00;101819.31;5000715;28;20123;-86
2023/09/06 00:50:54;;;;;;;4.10;3.03;;;;;;;19.61;100.00;101811.25;5022847;28;20029;-86
2023/09/06 00:53:21;;;;;;;4.35;3.78;;;;;;;19.57;100.00;101813.31;5023898;28;20028;-86
2023/09/06 00:55:48;;;;;;;5.70;3.75;;;;;;;19.57;100.00;101816.16;5015713;28;20068;-86
2023/09/06 00:58:18;;;;;;;5.28;3.97;;;;;;;19.55;100.00;101812.91;5010067;28;20887;-86
2023/09/06 01:00:48;;;;;;;4.53;3.05;;;;;;;19.53;100.00;101815.38;5007187;28;20148;-86
2023/09/06 01:03:14;;;;;;;4.45;3.50;;;;;;;19.49;100.00;101811.75;5031405;28;20032;-85
2023/09/06 01:06:14;;;;;;;7.72;4.13;;;;;;;19.46;100.00;101813.41;5026413;28;20049;-86
2023/09/06 01:08:41;;;;;;;4.03;2.90;;;;;;;19.45;100.00;101819.47;4998531;28;20041;-85
2023/09/06 01:11:24;;;;;;;4.53;3.45;;;;;;;19.45;100.00;101816.63;5013999;28;20032;-86
2023/09/06 01:13:59;;;;;;;4.60;3.30;;;;;;;19.44;100.00;101817.88;5004990;28;20068;-86
2023/09/06 01:16:36;;;;;;;5.40;3.63;;;;;;;19.42;100.00;101826.81;5008524;28;20053;-86
2023/09/06 01:19:01;;;;;;;6.88;3.97;;;;;;;19.35;100.00;101812.66;5007612;28;20041;-86
2023/09/06 01:21:36;;;;;;;5.05;3.95;;;;;;;19.39;100.00;101826.81;5024890;28;20038;-86
2023/09/06 01:24:03;;;;;;;4.63;3.20;;;;;;;19.33;100.00;101817.94;5021049;28;20025;-88
2023/09/06 01:26:31;;;;;;;4.57;3.30;;;;;;;19.32;100.00;101821.22;5009049;28;20034;-88
2023/09/06 01:28:57;;;;;;;5.88;3.53;;;;;;;19.25;100.00;101820.03;5027254;28;20075;-88
2023/09/06 01:31:22;;;;;;;4.35;3.22;;;;;;;19.25;100.00;101824.91;5020192;28;20022;-88
2023/09/06 01:33:48;;;;;;;4.55;3.40;;;;;;;19.23;100.00;101819.63;5030068;28;20071;-89
2023/09/06 01:36:13;;;;;;;6.50;3.97;;;;;;;19.24;100.00;101820.44;5009717;28;20034;-88
2023/09/06 01:38:38;;;;;;;4.63;3.03;;;;;;;19.24;100.00;101818.41;5009046;28;20041;-88
2023/09/06 01:41:04;;;;;;;4.75;3.38;;;;;;;19.22;100.00;101809.50;5026893;28;20555;-89
2023/09/06 01:43:31;;;;;;;4.60;3.13;;;;;;;19.24;100.00;101814.75;5023833;28;20064;-89
2023/09/06 01:45:56;;;;;;;4.93;3.70;;;;;;;19.20;100.00;101814.78;5019951;28;20025;-88
2023/09/06 01:48:22;;;;;;;6.47;4.03;;;;;;;19.22;100.00;101812.31;5018797;28;20079;-87
2023/09/06 01:50:48;;;;;;;4.68;3.28;;;;;;;19.22;100.00;101815.16;5007500;28;20025;-88
2023/09/06 01:53:14;;;;;;;5.75;4.28;;;;;;;19.20;100.00;101803.41;5004556;28;20041;-88
2023/09/06 01:55:41;;;;;;;5.72;4.10;;;;;;;19.21;100.00;101809.94;5022270;28;20030;-88
2023/09/06 01:58:08;;;;;;;5.85;3.50;;;;;;;19.11;100.00;101810.81;5009785;28;20030;-87
2023/09/06 02:00:36;;;;;;;4.75;3.28;;;;;;;19.09;100.00;101802.69;5031851;28;20053;-87
2023/09/06 02:03:01;;;;;;;5.65;3.42;;;;;;;19.15;100.00;101803.06;5006882;28;20175;-87
2023/09/06 02:05:26;;;;;;;3.42;2.88;;;;;;;19.17;100.00;101798.59;5021633;28;20025;-88
2023/09/06 02:07:52;;;;;;;6.30;3.63;;;;;;;18.97;100.00;101800.31;5024763;28;20073;-88
2023/09/06 02:10:17;;;;;;;5.50;3.40;;;;;;;18.92;100.00;101804.41;5011245;28;20115;-87
2023/09/06 02:12:44;;;;;;;5.18;3.72;;;;;;;18.93;100.00;101805.22;5027782;28;20120;-87
2023/09/06 02:15:13;;;;;;;4.65;3.63;;;;;;;18.93;100.00;101811.72;5008200;28;20066;-88
2023/09/06 02:17:39;;;;;;;6.00;3.65;;;;;;;18.88;100.00;101810.09;4989135;28;20566;-88
2023/09/06 02:20:17;;;;;;;5.32;2.95;;;;;;;19.03;100.00;101810.81;4984768;28;20143;-88
2023/09/06 02:22:44;;;;;;;4.90;3.58;;;;;;;19.01;100.00;101806.78;4989878;28;20176;-87
2023/09/06 02:25:10;;;;;;;3.92;3.17;;;;;;;19.14;100.00;101810.75;4990248;28;20030;-87
2023/09/06 02:27:36;;;;;;;4.47;3.08;;;;;;;19.11;100.00;101799.44;4993151;28;20030;-88
2023/09/06 02:30:06;;;;;;;4.20;3.30;;;;;;;19.09;100.00;101802.69;4989483;28;20386;-87
2023/09/06 02:32:32;;;;;;;4.28;3.22;;;;;;;19.09;100.00;101802.69;4985283;28;20058;-87
2023/09/06 02:34:58;;;;;;;6.03;3.63;;;;;;;19.03;100.00;101807.97;5004701;28;20034;-87
2023/09/06 02:37:24;;;;;;;3.83;2.95;;;;;;;19.06;100.00;101809.22;4981620;28;20030;-88
2023/09/06 02:39:52;;;;;;;5.78;3.78;;;;;;;18.99;100.00;101814.91;4988975;28;20487;-88
2023/09/06 02:42:18;;;;;;;5.72;3.95;;;;;;;18.79;100.00;101804.06;4990109;28;20549;-88
2023/09/06 02:44:43;;;;;;;5.60;3.28;;;;;;;18.80;100.00;101805.69;4987469;28;20030;-87
2023/09/06 02:47:11;;;;;;;5.18;3.58;;;;;;;18.75;100.00;101811.75;4996086;28;20099;-87
2023/09/06 02:49:41;;;;;;;5.80;3.58;;;;;;;18.55;100.00;101807.78;4985508;28;20434;-87
2023/09/06 02:52:12;;;;;;;4.82;3.20;;;;;;;18.64;100.00;101816.69;4998547;28;20033;-86
2023/09/06 02:54:42;;;;;;;6.17;4.50;;;;;;;18.56;100.00;101815.09;4983682;28;20101;-85
2023/09/06 02:57:10;;;;;;;5.70;3.78;;;;;;;18.59;100.00;101822.75;4980974;28;20757;-86
2023/09/06 02:59:35;;;;;;;5.15;3.72;;;;;;;18.58;100.00;101815.47;4984236;28;20034;-87
2023/09/06 03:02:05;;;;;;;7.97;4.22;;;;;;;18.62;100.00;101819.13;4983748;28;20038;-85
2023/09/06 03:04:37;;;;;;;5.05;4.30;;;;;;;18.51;100.00;101809.81;4984444;28;20380;-87
2023/09/06 03:07:07;;;;;;;;;;;;;;;18.58;100.00;101819.13;4985346;28;20501;-88
2023/09/06 03:09:35;;;;;;;5.53;3.65;;;;;;;18.66;100.00;101822.75;4996538;28;19918;-87
2023/09/06 03:12:11;;;;;;;4.68;3.45;;;;;;;18.73;100.00;101819.88;4981783;28;20027;-88
2023/09/06 03:14:55;;;;;;;6.53;3.25;;;;;;;18.82;100.00;101828.75;4985031;28;21983;-87
2023/09/06 03:17:22;;;;;;;4.35;3.30;;;;;;;18.78;100.00;101827.97;5002798;28;20037;-88
2023/09/06 03:19:53;;;;;;;4.68;3.83;;;;;;;18.78;100.00;101827.97;4982456;28;20490;-88
2023/09/06 03:22:21;;;;;;;7.82;3.53;;;;;;;18.86;100.00;101835.22;4984665;28;20125;-88
2023/09/06 03:24:48;;;;;;;3.95;3.55;;;;;;;18.80;100.00;101824.72;4997987;28;20154;-88
2023/09/06 03:27:16;;;;;;;6.57;4.07;;;;;;;18.83;100.00;101836.06;4984570;28;20023;-88
2023/09/06 03:29:45;;;;;;;5.32;3.42;;;;;;;18.73;100.00;101831.22;4988806;28;20022;-88
2023/09/06 03:32:10;;;;;;;5.20;3.67;;;;;;;18.77;100.00;101840.53;4993857;28;20030;-88
2023/09/06 03:34:36;;;;;;;4.05;3.28;;;;;;;18.72;100.00;101832.44;5004689;28;20037;-87
2023/09/06 03:37:05;;;;;;;6.38;4.25;;;;;;;18.77;100.00;101843.34;4980318;28;20030;-88
2023/09/06 03:39:41;;;;;;;9.00;4.22;;;;;;;18.76;100.00;101846.59;4989142;28;20037;-88
2023/09/06 03:42:10;;;;;;;4.75;3.70;;;;;;;18.72;100.00;101840.13;4984115;28;20518;-88
2023/09/06 03:44:39;;;;;;;5.32;4.40;;;;;;;18.64;100.00;101836.53;4987231;28;20026;-87
2023/09/06 03:47:05;;;;;;;8.23;3.55;;;;;;;18.67;100.00;101845.00;5001272;28;20450;-88
2023/09/06 03:49:35;;;;;;;5.47;3.83;;;;;;;18.63;100.00;101846.25;4981283;28;20030;-87
2023/09/06 03:52:04;;;;;;;5.85;3.72;;;;;;;18.60;100.00;101844.22;4984734;28;20494;-87
2023/09/06 03:54:34;;;;;;;6.97;4.63;;;;;;;18.55;100.00;101848.31;4985019;28;20022;-87
2023/09/06 03:57:07;;;;;;;7.22;4.25;;;;;;;18.53;100.00;101855.59;4987171;28;20406;-88
2023/09/06 03:59:35;;;;;;;5.07;3.92;;;;;;;18.38;100.00;101838.59;4986136;28;20541;-88
2023/09/06 04:02:13;;;;;;;6.78;3.75;;;;;;;18.47;100.00;101855.22;4992083;28;22024;-87
2023/09/06 04:04:39;;;;;;;8.93;3.80;;;;;;;18.39;100.00;101857.25;4986614;28;20030;-88
2023/09/06 04:07:07;;;;;;;6.35;3.85;;;;;;;18.33;100.00;101843.91;4985416;28;20042;-87
2023/09/06 04:09:37;;;;;;;10.73;3.92;;;;;;;18.40;100.00;101853.19;4983263;28;20131;-88
2023/09/06 04:12:03;;;;;;;5.70;3.67;;;;;;;18.33;100.00;101853.22;4983890;28;20037;-87
2023/09/06 04:14:29;;;;;;;5.68;4.28;;;;;;;18.26;100.00;101845.53;4990353;28;20315;-86
2023/09/06 04:16:55;;;;;;;9.07;4.03;;;;;;;18.30;100.00;101851.22;5008931;28;20029;-86
2023/09/06 04:19:21;;;;;;;5.90;4.00;;;;;;;18.28;100.00;101857.28;5019367;28;20072;-86
2023/09/06 04:21:47;;;;;;;7.20;4.47;;;;;;;18.23;100.00;101849.16;5022177;28;20127;-86
2023/09/06 04:24:13;;;;;;;8.30;4.07;;;;;;;18.21;100.00;101842.28;5000361;28;20035;-86
2023/09/06 04:26:39;;;;;;;6.75;4.03;;;;;;;18.22;100.00;101849.59;4998714;28;20402;-86
2023/09/06 04:29:05;;;;;;;5.32;3.88;;;;;;;18.17;100.00;101847.16;5005064;28;20029;-86
2023/09/06 04:31:30;;;;;;;6.70;5.18;;;;;;;18.15;100.00;101853.25;5020823;28;20033;-86
2023/09/06 04:34:01;;;;;;;5.70;4.00;;;;;;;18.14;100.00;101845.16;5004865;28;20148;-86
2023/09/06 04:36:26;;;;;;;5.55;4.05;;;;;;;18.06;100.00;101847.97;5021923;28;20040;-87
2023/09/06 04:38:53;;;;;;;5.75;4.05;;;;;;;18.14;100.00;101851.63;5020903;28;20642;-86
2023/09/06 04:41:18;;;;;;;4.85;3.50;;;;;;;18.04;100.00;101841.09;5020947;28;20425;-86
2023/09/06 04:43:44;;;;;;;4.90;3.83;;;;;;;17.97;100.00;101843.97;5023037;28;20033;-87
2023/09/06 04:46:10;;;;;;;5.97;5.10;;;;;;;18.02;100.00;101855.66;5019996;28;20628;-86
2023/09/06 04:48:36;;;;;;;6.00;3.80;;;;;;;18.05;100.00;101854.06;5014916;28;20025;-86
2023/09/06 04:51:02;;;;;;;8.02;4.70;;;;;;;17.99;100.00;101852.88;5007904;28;20018;-86
2023/09/06 04:53:27;;;;;;;8.23;4.10;;;;;;;18.04;100.00;101864.56;5003935;28;20041;-86
2023/09/06 04:55:54;;;;;;;6.25;4.05;;;;;;;18.03;100.00;101856.50;5002084;28;20029;-86
2023/09/06 04:58:20;;;;;;;8.02;4.68;;;;;;;18.00;100.00;101858.09;5018023;28;20041;-86
2023/09/06 05:00:49;;;;;;;6.03;4.38;;;;;;;18.00;100.00;101860.94;5014587;28;20030;-86
2023/09/06 05:03:19;;;;;;;8.00;4.70;;;;;;;17.94;100.00;101859.75;5001605;28;20049;-86
2023/09/06 05:05:45;;;;;;;5.90;4.18;;;;;;;17.92;100.00;101862.19;5021106;28;20033;-86
2023/09/06 05:08:11;;;;;;;6.65;4.70;;;;;;;17.91;100.00;101854.88;5018690;28;20091;-86
2023/09/06 05:10:37;;;;;;;7.18;3.95;;;;;;;17.88;100.00;101850.03;5010551;28;20030;-86
2023/09/06 05:13:07;;;;;;;5.95;4.38;;;;;;;17.93;100.00;101862.97;5021996;28;20026;-86
2023/09/06 05:15:35;;;;;;;5.45;3.97;;;;;;;17.98;100.00;101866.22;4998436;28;20068;-86
2023/09/06 05:18:01;;;;;;;6.97;4.13;;;;;;;17.91;100.00;101876.75;5001234;28;20026;-86
2023/09/06 05:20:45;;;;;;;5.70;4.10;;;;;;;17.90;100.00;101877.94;4998909;28;20544;-86
2023/09/06 05:23:12;;;;;;;8.05;5.07;;;;;;;17.88;100.00;101872.69;5018753;28;20083;-86
2023/09/06 05:25:39;;;;;;;7.95;4.28;;;;;;;17.98;100.00;101888.88;5024424;28;20030;-86
2023/09/06 05:28:12;;;;;;;6.65;4.63;;;;;;;17.98;100.00;101883.22;4996353;28;20033;-86
2023/09/06 05:30:43;;;;;;;6.70;3.83;;;;;;;17.96;100.00;101882.81;5019712;28;20441;-86
2023/09/06 05:33:09;;;;;;;7.97;4.05;;;;;;;17.95;100.00;101881.19;5003302;28;20025;-86
2023/09/06 05:35:35;;;;;;;7.32;5.03;;;;;;;17.81;100.00;101873.44;5007814;28;20073;-86
2023/09/06 05:38:04;;;;;;;7.38;4.28;;;;;;;17.92;100.00;101884.84;5025447;28;20513;-86
2023/09/06 05:40:30;;;;;;;6.80;4.60;;;;;;;17.96;100.00;101885.66;5028016;28;20122;-86
2023/09/06 05:42:57;;;;;;;6.65;4.43;;;;;;;17.96;100.00;101891.31;5025313;28;20037;-86
2023/09/06 05:45:22;;;;;;;6.35;4.38;;;;;;;17.86;100.00;101892.13;5000729;28;21242;-86
2023/09/06 05:47:49;;;;;;;6.00;5.10;;;;;;;17.85;100.00;101896.16;5005052;28;20029;-87
2023/09/06 05:50:14;;;;;;;6.78;4.50;;;;;;;17.85;100.00;101893.31;5007637;28;20420;-86
2023/09/06 05:52:40;;;;;;;6.47;4.57;;;;;;;17.76;100.00;101887.22;4999638;28;20063;-86
2023/09/06 05:55:06;;;;;;;7.20;5.40;;;;;;;17.79;100.00;101897.72;5016201;28;20064;-86
2023/09/06 05:57:32;;;;;;;9.25;5.15;;;;;;;17.79;100.00;101906.22;5007855;28;20033;-86
2023/09/06 05:59:58;;;;;;;6.82;4.55;;;;;;;17.74;100.00;101900.97;5007845;28;20628;-86
2023/09/06 06:02:24;;;;;;;5.95;4.35;;;;;;;17.71;100.00;101896.09;5022414;28;20033;-85
2023/09/06 06:04:50;;;;;;;6.88;4.53;;;;;;;17.85;100.00;101891.28;5027754;28;20049;-86
2023/09/06 06:07:16;;;;;;;7.90;4.95;;;;;;;17.83;100.00;101892.91;5006362;28;20048;-90
2023/09/06 06:09:43;;;;;;;6.38;3.30;;;;;;;19.22;100.00;101903.16;5019723;28;20033;-78
2023/09/06 06:12:10;;;;;;;6.47;3.80;;;;;;;19.65;100.00;101905.75;5008190;28;20026;-78
2023/09/06 06:14:36;;;;;;;9.82;3.40;;;;;;;19.75;100.00;101911.78;5025941;28;20037;-78
2023/09/06 06:17:06;;;;;;;3.95;3.00;;;;;;;19.89;100.00;101906.81;5004492;28;20033;-78
2023/09/06 06:19:35;;;;;;;8.30;4.78;;;;;;;19.95;100.00;101907.19;5021229;28;20519;-78
2023/09/06 06:22:04;;;;;;;7.63;4.57;;;;;;;19.89;100.00;101900.34;5022438;28;20538;-81
2023/09/06 06:24:35;;;;;;;8.10;4.28;;;;;;;20.08;100.00;101896.91;5022369;28;20137;-83
2023/09/06 06:27:01;;;;;;;9.15;4.00;;;;;;;20.18;100.00;101905.78;5009469;28;20075;-83
2023/09/06 06:29:26;;;;;;;8.15;4.15;;;;;;;20.14;100.00;101914.34;5016438;28;20025;-85
2023/09/06 06:31:52;;;;;;;5.70;4.25;;;;;;;20.20;100.00;101909.81;5022757;28;20761;-84
2023/09/06 06:34:18;;;;;;;8.18;3.78;;;;;;;20.25;100.00;101919.91;5005080;28;20057;-83
2023/09/06 06:36:45;;;;;;;7.55;4.80;;;;;;;19.81;100.00;101922.28;5000842;28;20494;-85
2023/09/06 06:39:12;;;;;;;9.32;5.65;;;;;;;19.22;100.00;101919.38;5019742;28;20025;-85
2023/09/06 06:41:38;;;;;;;9.63;5.22;;;;;;;18.90;100.00;101923.16;5022850;28;20033;-84
2023/09/06 06:44:03;;;;;;;11.15;6.55;;;;;;;18.75;100.00;101925.19;5023555;28;20588;-87
2023/09/06 06:46:34;;;;;;;8.13;6.22;;;;;;;18.70;100.00;101931.31;5020968;28;20122;-87
2023/09/06 06:49:01;;;;;;;8.40;6.00;;;;;;;18.69;100.00;101927.63;5025080;28;20037;-87
2023/09/06 06:51:27;;;;;;;9.32;5.53;;;;;;;18.71;100.00;101929.28;5007999;28;20503;-87
2023/09/06 06:53:52;;;;;;;9.70;6.53;;;;;;;18.64;100.00;101919.56;5013056;28;20033;-88
2023/09/06 06:56:21;;;;;;;10.70;5.93;;;;;;;18.73;100.00;101938.97;5013107;28;20032;-85
2023/09/06 06:58:49;;;;;;;9.35;6.40;;;;;;;18.77;100.00;101939.78;5030206;28;20033;-86
2023/09/06 07:01:15;;;;;;;11.30;7.22;;;;;;;18.87;100.00;101941.81;5019735;28;20033;-86
2023/09/06 07:03:40;;;;;;;9.88;6.05;;;;;;;18.87;100.00;101949.53;5021413;28;20025;-86
2023/09/06 07:06:06;;;;;;;10.32;5.47;;;;;;;18.91;100.00;101946.66;5025192;28;20036;-86
2023/09/06 07:08:32;;;;;;;12.85;6.25;;;;;;;18.94;100.00;101943.81;5016092;28;20413;-86
2023/09/06 07:10:59;;;;;;;7.47;5.50;;;;;;;18.97;100.00;101948.66;5006706;28;20036;-86
2023/09/06 07:13:25;;;;;;;7.30;5.43;;;;;;;19.09;100.00;101944.56;5012632;28;20025;-87
2023/09/06 07:15:50;;;;;;;6.88;4.97;;;;;;;19.13;100.00;101950.25;5020445;28;20045;-87
2023/09/06 07:18:16;;;;;;;7.72;6.13;;;;;;;19.19;100.00;101949.41;5005197;28;20098;-88
2023/09/06 07:20:42;;;;;;;9.48;5.72;;;;;;;19.28;100.00;101954.63;5029177;28;20049;-88
2023/09/06 07:23:07;;;;;;;8.27;5.53;;;;;;;19.25;100.00;101947.75;5022902;28;20021;-87
2023/09/06 07:25:33;;;;;;;8.30;5.28;;;;;;;19.38;100.00;101950.94;5004720;28;20037;-86
2023/09/06 07:27:59;;;;;;;8.65;5.97;;;;;;;19.42;100.00;101956.59;5027796;28;20479;-87
2023/09/06 07:30:25;;;;;;;8.70;5.15;;;;;;;19.59;100.00;101958.53;4998371;28;20033;-85
2023/09/06 07:32:51;;;;;;;5.47;4.40;;;;;;;19.64;100.00;101955.25;5001388;28;20052;-87
2023/09/06 07:35:16;;;;;;;8.65;5.43;;;;;;;19.66;100.00;101967.00;5009299;28;20457;-87
2023/09/06 07:37:43;;;;;;;8.50;5.20;;;;;;;19.80;100.00;101971.03;5023861;28;20033;-87
2023/09/06 07:40:09;;;;;;;7.47;4.07;;;;;;;19.81;100.00;101972.63;5023071;28;20040;-87
2023/09/06 07:42:39;;;;;;;7.75;5.20;;;;;;;19.97;100.00;101958.72;5020608;28;20021;-87
2023/09/06 07:45:06;;;;;;;10.38;4.35;;;;;;;20.03;100.00;101967.63;5022608;28;20044;-87
2023/09/06 07:47:32;;;;;;;8.07;4.88;;;;;;;20.11;100.00;101966.31;5006332;28;20033;-87
2023/09/06 07:49:57;;;;;;;6.90;4.20;;;;;;;20.10;100.00;101962.66;5007781;28;20536;-87
2023/09/06 07:52:23;;;;;;;7.28;4.22;;;;;;;20.26;100.00;101947.09;5025569;28;20338;-87
2023/09/06 07:54:48;;;;;;;8.63;5.22;;;;;;;20.38;100.00;101960.81;5007125;28;20056;-86
2023/09/06 07:57:13;;;;;;;6.88;4.78;;;;;;;20.43;100.00;101959.56;5034818;28;20034;-87
2023/09/06 07:59:39;;;;;;;6.78;4.53;;;;;;;20.52;100.00;101960.69;5025575;28;20037;-87
2023/09/06 08:02:05;;;;;;;7.10;4.43;;;;;;;20.61;100.00;101970.78;5000542;28;20095;-83
2023/09/06 08:04:31;;;;;;;8.20;4.82;;;;;;;20.74;100.00;101966.19;5025734;28;20481;-85
2023/09/06 08:06:56;;;;;;;7.18;4.40;;;;;;;20.63;100.00;101971.97;5021695;28;20037;-85
2023/09/06 08:09:21;;;;;;;7.88;5.55;;;;;;;20.85;100.00;101975.44;5020398;28;20449;-84
2023/09/06 08:11:47;;;;;;;6.63;4.05;;;;;;;21.13;100.00;101975.53;5025795;28;20385;-86
2023/09/06 08:14:12;;;;;;;6.93;4.68;;;;;;;20.86;100.00;101976.22;5026796;28;20317;-85
2023/09/06 08:16:38;;;;;;;5.80;4.40;;;;;;;20.96;100.00;101965.97;5004680;28;20032;-87
2023/09/06 08:19:03;;;;;;;6.85;4.30;;;;;;;21.18;100.00;101980.75;5016304;28;20034;-86
2023/09/06 08:21:29;;;;;;;9.55;4.38;;;;;;;20.97;100.00;101984.66;5013579;28;20533;-87
2023/09/06 08:23:55;;;;;;;8.45;3.92;;;;;;;20.99;100.00;101982.19;5020361;28;20585;-87
2023/09/06 08:26:20;;;;;;;6.40;3.88;;;;;;;21.16;100.00;101981.16;5017631;28;20021;-82
2023/09/06 08:28:45;;;;;;;8.55;4.53;;;;;;;21.54;100.00;101988.88;5005932;28;20063;-82
2023/09/06 08:31:11;;;;;;;8.40;4.13;;;;;;;21.57;100.00;101988.81;5001510;28;20018;-82
2023/09/06 08:33:36;;;;;;;5.70;4.18;;;;;;;21.62;99.94;101991.19;5021446;28;20087;-82
2023/09/06 08:36:02;;;;;;;6.82;3.85;;;;;;;21.68;99.21;101995.16;5020012;28;20037;-82
2023/09/06 08:38:27;;;;;;;6.18;4.38;;;;;;;21.59;99.78;101996.91;5023377;28;20370;-82
2023/09/06 08:40:53;;;;;;;6.85;4.30;;;;;;;21.85;98.58;101999.00;4997404;28;20038;-82
2023/09/06 08:43:19;;;;;;;4.78;4.07;;;;;;;21.68;99.46;102006.56;5007198;28;20546;-82
2023/09/06 08:45:47;;;;;;;7.45;4.40;;;;;;;22.02;98.98;101999.97;5017220;28;20049;-82
2023/09/06 08:48:14;;;;;;;8.88;5.80;;;;;;;22.28;99.35;102003.25;5024682;28;20474;-82
2023/09/06 08:50:40;;;;;;;6.70;3.78;;;;;;;22.50;100.00;102004.50;5026834;28;20041;-82
2023/09/06 08:53:10;;;;;;;6.20;4.20;;;;;;;22.56;98.70;102006.84;5022486;28;20537;-82
2023/09/06 08:55:36;;;;;;;5.28;3.42;;;;;;;22.60;97.85;102013.31;5002342;28;20026;-82
2023/09/06 08:58:05;;;;;;;7.68;4.30;;;;;;;22.87;97.83;102008.31;5021285;28;20504;-82
2023/09/06 09:00:30;;;;;;;7.25;4.30;;;;;;;22.91;96.70;102011.13;5022228;28;20036;-83
2023/09/06 09:02:59;;;;;;;10.27;4.53;;;;;;;22.83;96.29;102007.59;5031382;28;20477;-84
2023/09/06 09:05:25;;;;;;;9.50;5.00;;;;;;;23.20;94.78;102017.09;5026700;28;20474;-83
2023/09/06 09:07:58;;;;;;;7.03;4.25;;;;;;;22.99;96.19;102006.09;5009367;28;20096;-83
2023/09/06 09:10:27;;;;;;;6.70;4.15;;;;;;;23.13;94.53;102014.41;5029447;28;20033;-83
2023/09/06 09:12:58;;;;;;;9.52;5.70;;;;;;;23.34;93.69;102011.09;5031240;28;20026;-84
2023/09/06 09:15:25;;;;;;;7.72;4.32;;;;;;;23.42;94.20;102010.94;5028705;28;20049;-83
2023/09/06 09:17:51;;;;;;;10.55;4.55;;;;;;;23.25;95.15;102013.72;5027364;28;20029;-83
2023/09/06 09:20:18;;;;;;;7.65;4.15;;;;;;;23.25;94.94;102010.88;5027844;28;20041;-83
2023/09/06 09:22:44;;;;;;;8.13;4.50;;;;;;;23.27;96.83;102011.25;5010485;28;20056;-84
2023/09/06 09:25:16;;;;;;;6.50;4.05;;;;;;;23.49;94.18;102005.91;5011362;28;20480;-83
2023/09/06 09:27:44;;;;;;;7.25;4.18;;;;;;;23.53;92.29;102011.53;5029017;28;20039;-83
2023/09/06 09:30:12;;;;;;;11.18;4.32;;;;;;;23.74;90.86;102016.78;5024115;28;20047;-83
2023/09/06 09:32:39;;;;;;;6.72;4.22;;;;;;;23.53;91.86;102011.53;5024274;28;20238;-84
2023/09/06 09:35:09;;;;;;;5.60;3.95;;;;;;;23.77;90.71;102015.13;5021499;28;20033;-83
2023/09/06 09:37:35;;;;;;;5.80;4.00;;;;;;;23.91;92.08;102014.78;5025138;28;20036;-83
2023/09/06 09:40:18;;;;;;;9.52;4.35;;;;;;;24.03;91.83;102021.84;5001421;28;20577;-83
2023/09/06 09:42:54;;;;;;;6.13;3.75;;;;;;;24.08;90.96;102012.75;5002305;28;20025;-84
2023/09/06 09:45:25;;;;;;;6.97;4.10;;;;;;;24.32;92.22;102015.44;5018533;28;20040;-83
2023/09/06 09:47:54;;;;;;;8.27;4.03;;;;;;;24.23;89.43;102003.84;5019534;28;20092;-83
2023/09/06 09:50:29;;;;;;;5.00;3.38;;;;;;;24.61;88.42;102011.91;5021080;28;20120;-84
2023/09/06 09:52:55;;;;;;;5.45;3.70;;;;;;;24.58;87.03;102016.44;5005638;28;20068;-84
2023/09/06 09:55:27;;;;;;;6.07;3.85;;;;;;;24.63;86.24;102012.25;5023619;28;20049;-84
2023/09/06 09:57:54;;;;;;;7.32;3.95;;;;;;;24.67;85.13;102013.78;5012810;28;20116;-84
2023/09/06 10:00:27;;;;;;;6.15;3.50;;;;;;;24.64;87.25;102003.19;5006125;28;20030;-84
2023/09/06 10:02:56;;;;;;;5.93;3.80;;;;;;;24.40;86.80;102011.16;5008072;28;20061;-82
2023/09/06 10:05:23;;;;;;;7.13;4.00;;;;;;;24.76;85.87;102004.53;5009274;28;20030;-82
2023/09/06 10:07:49;;;;;;;4.68;3.67;;;;;;;24.72;87.99;102000.97;5023601;28;20037;-84
2023/09/06 10:10:15;;;;;;;5.38;3.63;;;;;;;24.91;85.30;102002.88;5021094;28;20026;-84
2023/09/06 10:12:44;;;;;;;5.10;3.75;;;;;;;25.23;83.04;101997.53;5021162;28;20349;-82
2023/09/06 10:15:15;;;;;;;4.75;3.50;;;;;;;25.30;80.48;102009.59;5018885;28;20506;-84
2023/09/06 10:17:42;;;;;;;9.73;4.70;;;;;;;25.16;83.52;101998.53;5022681;28;20026;-82
2023/09/06 10:20:12;;;;;;;9.00;4.75;;;;;;;25.23;82.25;101991.81;5021077;28;20295;-85
2023/09/06 10:22:44;;;;;;;3.95;3.03;;;;;;;25.38;83.39;101986.44;5023955;28;20034;-84
2023/09/06 10:25:10;;;;;;;6.32;3.97;;;;;;;25.64;83.76;101993.84;5025810;28;20029;-84
2023/09/06 10:27:45;;;;;;;6.90;3.42;;;;;;;25.67;83.02;101995.00;5027185;28;20546;-83
2023/09/06 10:30:17;;;;;;;6.32;4.00;;;;;;;25.82;83.51;101989.63;5020768;28;20021;-87
2023/09/06 10:32:46;;;;;;;7.20;4.87;;;;;;;25.67;83.89;101981.44;5005017;28;20061;-87
2023/09/06 10:35:27;;;;;;;5.30;3.83;;;;;;;25.75;83.51;101994.31;5029000;28;20097;-86
2023/09/06 10:38:18;;;;;;;4.63;3.50;;;;;;;25.88;83.65;101988.56;5022390;28;20037;-87
2023/09/06 10:40:49;;;;;;;7.10;4.30;;;;;;;26.33;83.91;101998.22;5009146;28;20068;-86
2023/09/06 10:43:20;;;;;;;9.98;3.47;;;;;;;26.10;81.34;101991.59;5029390;28;20708;-86
2023/09/06 10:46:26;;;;;;;6.30;3.92;;;;;;;26.26;77.69;101995.59;5026951;28;20037;-87
2023/09/06 10:49:22;;;;;;;6.10;3.22;;;;;;;26.67;76.86;102005.28;5010403;28;20088;-86
2023/09/06 10:52:08;;;;;;;4.65;3.15;;;;;;;26.59;76.15;101998.22;5007473;28;20115;-86
2023/09/06 10:54:39;;;;;;;5.65;3.40;;;;;;;26.67;74.56;101993.78;5008942;28;20029;-86
2023/09/06 10:57:06;;;;;;;3.85;3.05;;;;;;;26.58;76.45;101999.47;5011000;28;20025;-86
2023/09/06 10:59:55;;;;;;;3.42;3.03;;;;;;;26.79;74.28;101990.09;5028247;28;20057;-87
2023/09/06 11:02:21;;;;;;;4.07;3.10;;;;;;;26.79;74.30;101992.94;4996739;28;20124;-87
2023/09/06 11:04:47;;;;;;;4.90;3.20;;;;;;;26.76;74.27;101985.28;5006548;28;20132;-86
2023/09/06 11:07:12;;;;;;;4.97;3.40;;;;;;;27.07;73.80;101990.31;5012281;28;20037;-86
2023/09/06 11:09:45;;;;;;;5.47;3.58;;;;;;;27.20;72.81;101973.81;5024918;28;20363;-86
2023/09/06 11:12:12;;;;;;;4.00;3.55;;;;;;;27.14;72.17;101987.19;5021262;28;20036;-85
2023/09/06 11:14:38;;;;;;;4.13;3.20;;;;;;;27.20;72.99;101993.94;5001231;28;20621;-85
2023/09/06 11:17:03;;;;;;;5.72;3.13;;;;;;;27.30;70.57;101989.06;5012571;28;20029;-86
2023/09/06 11:19:29;;;;;;;4.72;2.80;;;;;;;27.37;71.15;101998.22;5009599;28;20398;-86
2023/09/06 11:22:09;;;;;;;5.15;3.35;;;;;;;27.66;70.66;101993.44;5015358;28;20579;-86
2023/09/06 11:24:35;;;;;;;4.78;3.20;;;;;;;27.72;70.40;101986.63;5010218;28;20413;-85